Time,TemperatureF,DewpointF,PressureIn,WindDirection,WindDirectionDegrees,WindSpeedMPH,WindSpeedGustMPH,Humidity,HourlyPrecipIn,Conditions,Clouds,dailyrainin,SoftwareType,DateUTC
2013-04-03 00:02:00,42.0,18.0,-100.00,South,172,17.0,20.0,38,0.00,,,-99.99,,2013-04-03 06:02:00,
2013-04-03 00:12:00,40.0,20.0,-100.00,SSE,164,14.0,17.0,44,0.00,,,-99.99,,2013-04-03 06:12:00,
2013-04-03 00:21:00,40.0,21.0,-100.00,SSE,151,14.0,17.0,47,0.00,,,-99.99,,2013-04-03 06:21:00,
2013-04-03 00:32:00,41.0,21.0,-100.00,South,174,21.0,23.0,45,0.00,,,-99.99,,2013-04-03 06:32:00,
2013-04-03 00:42:00,41.0,21.0,-100.00,South,178,21.0,23.0,46,0.00,,,-99.99,,2013-04-03 06:42:00,
2013-04-03 00:52:00,40.0,21.0,-100.00,South,186,17.0,20.0,47,0.00,,,-99.99,,2013-04-03 06:52:00,
2013-04-03 01:02:00,40.0,21.0,-100.00,South,189,19.0,21.0,46,0.00,,,-99.99,,2013-04-03 07:02:00,
2013-04-03 01:11:00,40.0,21.0,-100.00,SSW,195,18.0,23.0,48,0.00,,,-99.99,,2013-04-03 07:11:00,
2013-04-03 01:22:00,40.0,20.0,-100.00,SSW,196,20.0,26.0,46,0.00,,,-99.99,,2013-04-03 07:22:00,
2013-04-03 01:32:00,40.0,20.0,-100.00,South,189,17.0,20.0,44,0.00,,,-99.99,,2013-04-03 07:32:00,
2013-04-03 01:41:00,41.0,20.0,-100.00,South,191,21.0,29.0,42,0.00,,,-99.99,,2013-04-03 07:41:00,
2013-04-03 01:52:00,41.0,22.0,-100.00,SSW,199,24.0,29.0,46,0.00,,,-99.99,,2013-04-03 07:52:00,
2013-04-03 02:02:00,42.0,20.0,-100.00,SSW,198,23.0,27.0,42,0.00,,,-99.99,,2013-04-03 08:02:00,
2013-04-03 02:11:00,41.0,20.0,-100.00,SSW,195,21.0,26.0,42,0.00,,,-99.99,,2013-04-03 08:11:00,
2013-04-03 02:21:00,43.0,19.0,-100.00,SSW,195,21.0,24.0,38,0.00,,,-99.99,,2013-04-03 08:21:00,
2013-04-03 02:32:00,42.0,17.0,-100.00,SSW,192,19.0,23.0,36,0.00,,,-99.99,,2013-04-03 08:32:00,
2013-04-03 02:41:00,43.0,17.0,-100.00,SSW,196,19.0,24.0,34,0.00,,,-99.99,,2013-04-03 08:41:00,
2013-04-03 02:51:00,42.0,15.0,-100.00,SSW,209,12.0,19.0,34,0.00,,,-99.99,,2013-04-03 08:51:00,
2013-04-03 03:02:00,42.0,14.0,-100.00,SW,232,9.0,14.0,32,0.00,,,-99.99,,2013-04-03 09:02:00,
2013-04-03 03:11:00,42.0,14.0,-100.00,SSW,209,12.0,16.0,31,0.00,,,-99.99,,2013-04-03 09:11:00,
2013-04-03 03:21:00,43.0,13.0,-100.00,SSW,212,10.0,12.0,29,0.00,,,-99.99,,2013-04-03 09:21:00,
2013-04-03 03:32:00,42.0,12.0,-100.00,SSW,199,11.0,13.0,29,0.00,,,-99.99,,2013-04-03 09:32:00,
2013-04-03 03:42:00,42.0,13.0,-100.00,NW,311,3.0,6.0,30,0.00,,,-99.99,,2013-04-03 09:42:00,
2013-04-03 03:52:00,42.0,12.0,-100.00,SSW,200,7.0,9.0,29,0.00,,,-99.99,,2013-04-03 09:52:00,
2013-04-03 04:02:00,42.0,12.0,-100.00,SSW,206,6.0,7.0,29,0.00,,,-99.99,,2013-04-03 10:02:00,
2013-04-03 04:12:00,42.0,13.0,-100.00,South,169,4.0,7.0,30,0.00,,,-99.99,,2013-04-03 10:12:00,
2013-04-03 04:22:00,41.0,12.0,-100.00,NW,318,0.0,1.0,30,0.00,,,-99.99,,2013-04-03 10:22:00,
2013-04-03 04:33:00,41.0,11.0,-100.00,West,280,0.0,1.0,29,0.00,,,-99.99,,2013-04-03 10:33:00,
2013-04-03 04:42:00,42.0,12.0,-100.00,ESE,103,1.0,2.0,29,0.00,,,-99.99,,2013-04-03 10:42:00,
2013-04-03 04:52:00,40.0,12.0,-100.00,SSW,212,1.0,1.0,32,0.00,,,-99.99,,2013-04-03 10:52:00,
2013-04-03 05:02:00,40.0,13.0,-100.00,SSE,160,0.0,1.0,32,0.00,,,-99.99,,2013-04-03 11:02:00,
2013-04-03 05:12:00,40.0,13.0,-100.00,SSW,210,0.0,2.0,33,0.00,,,-99.99,,2013-04-03 11:12:00,
2013-04-03 05:22:00,40.0,13.0,-100.00,SE,130,2.0,4.0,32,0.00,,,-99.99,,2013-04-03 11:22:00,
2013-04-03 05:32:00,39.0,13.0,-100.00,SSW,196,0.0,1.0,33,0.00,,,-99.99,,2013-04-03 11:32:00,
2013-04-03 05:41:00,39.0,13.0,-100.00,SSE,147,4.0,5.0,33,0.00,,,-99.99,,2013-04-03 11:41:00,
2013-04-03 05:52:00,41.0,15.0,-100.00,ENE,59,1.0,2.0,34,0.00,,,-99.99,,2013-04-03 11:52:00,
2013-04-03 06:01:00,40.0,13.0,-100.00,SE,134,2.0,3.0,33,0.00,,,-99.99,,2013-04-03 12:01:00,
2013-04-03 06:11:00,39.0,13.0,-100.00,SSE,158,1.0,2.0,33,0.00,,,-99.99,,2013-04-03 12:11:00,
2013-04-03 06:22:00,40.0,12.0,-100.00,SSE,147,1.0,2.0,31,0.00,,,-99.99,,2013-04-03 12:22:00,
2013-04-03 06:32:00,39.0,13.0,-100.00,SSE,147,1.0,2.0,33,0.00,,,-99.99,,2013-04-03 12:32:00,
2013-04-03 06:41:00,40.0,13.0,-100.00,SSE,165,1.0,1.0,32,0.00,,,-99.99,,2013-04-03 12:41:00,
2013-04-03 06:52:00,38.0,13.0,-100.00,SSE,165,1.0,3.0,35,0.00,,,-99.99,,2013-04-03 12:52:00,
2013-04-03 07:02:00,43.0,11.0,-100.00,SSW,198,9.0,10.0,26,0.00,,,-99.99,,2013-04-03 13:02:00,
2013-04-03 07:12:00,44.0,11.0,-100.00,SSW,196,9.0,10.0,25,0.00,,,-99.99,,2013-04-03 13:12:00,
2013-04-03 07:21:00,43.0,11.0,-100.00,NNW,343,2.0,5.0,27,0.00,,,-99.99,,2013-04-03 13:21:00,
2013-04-03 07:32:00,44.0,11.0,-100.00,SSW,198,7.0,9.0,26,0.00,,,-99.99,,2013-04-03 13:32:00,
2013-04-03 07:41:00,44.0,11.0,-100.00,SW,223,4.0,7.0,25,0.00,,,-99.99,,2013-04-03 13:41:00,
2013-04-03 07:52:00,44.0,11.0,-100.00,South,189,4.0,7.0,26,0.00,,,-99.99,,2013-04-03 13:52:00,
2013-04-03 08:02:00,45.0,11.0,-100.00,SSW,199,6.0,8.0,25,0.00,,,-99.99,,2013-04-03 14:02:00,
2013-04-03 08:11:00,45.0,12.0,-100.00,WSW,247,2.0,5.0,26,0.00,,,-99.99,,2013-04-03 14:11:00,
2013-04-03 08:21:00,46.0,14.0,-100.00,SSW,200,2.0,4.0,26,0.00,,,-99.99,,2013-04-03 14:21:00,
2013-04-03 08:32:00,47.0,12.0,-100.00,South,181,2.0,3.0,24,0.00,,,-99.99,,2013-04-03 14:32:00,
2013-04-03 08:42:00,48.0,12.0,-100.00,South,185,1.0,1.0,22,0.00,,,-99.99,,2013-04-03 14:42:00,
2013-04-03 08:51:00,49.0,14.0,-100.00,SSE,151,0.0,1.0,25,0.00,,,-99.99,,2013-04-03 14:51:00,
2013-04-03 09:02:00,51.0,13.0,-100.00,ENE,61,0.0,0.0,21,0.00,,,-99.99,,2013-04-03 15:02:00,
2013-04-03 09:11:00,51.0,11.0,-100.00,NE,56,1.0,2.0,20,0.00,,,-99.99,,2013-04-03 15:11:00,
2013-04-03 09:22:00,50.0,13.0,-100.00,NE,44,2.0,4.0,22,0.00,,,-99.99,,2013-04-03 15:22:00,
2013-04-03 09:32:00,51.0,14.0,-100.00,ENE,71,4.0,5.0,23,0.00,,,-99.99,,2013-04-03 15:32:00,
2013-04-03 09:42:00,51.0,14.0,-100.00,NE,38,4.0,5.0,22,0.00,,,-99.99,,2013-04-03 15:42:00,
2013-04-03 09:53:00,51.0,13.0,-100.00,NNE,30,2.0,4.0,22,0.00,,,-99.99,,2013-04-03 15:53:00,
2013-04-03 10:02:00,52.0,11.0,-100.00,ENE,62,4.0,6.0,19,0.00,,,-99.99,,2013-04-03 16:02:00,
2013-04-03 10:12:00,51.0,12.0,-100.00,ENE,65,6.0,7.0,20,0.00,,,-99.99,,2013-04-03 16:12:00,
2013-04-03 10:22:00,51.0,11.0,-100.00,NE,40,3.0,4.0,20,0.00,,,-99.99,,2013-04-03 16:22:00,
2013-04-03 10:32:00,52.0,13.0,-100.00,NE,55,3.0,4.0,20,0.00,,,-99.99,,2013-04-03 16:32:00,
2013-04-03 10:42:00,52.0,12.0,-100.00,NNW,347,6.0,7.0,20,0.00,,,-99.99,,2013-04-03 16:42:00,
2013-04-03 10:52:00,53.0,15.0,-100.00,ENE,58,6.0,9.0,22,0.00,,,-99.99,,2013-04-03 16:52:00,
2013-04-03 11:02:00,53.0,13.0,-100.00,ENE,64,4.0,9.0,20,0.00,,,-99.99,,2013-04-03 17:02:00,
2013-04-03 11:12:00,53.0,14.0,-100.00,NE,52,3.0,4.0,20,0.00,,,-99.99,,2013-04-03 17:12:00,
2013-04-03 11:22:00,54.0,15.0,-100.00,South,185,4.0,4.0,21,0.00,,,-99.99,,2013-04-03 17:22:00,
2013-04-03 11:32:00,54.0,15.0,-100.00,East,85,6.0,9.0,21,0.00,,,-99.99,,2013-04-03 17:32:00,
2013-04-03 11:45:00,55.0,14.0,-100.00,SE,144,4.0,9.0,19,0.00,,,-99.99,,2013-04-03 17:45:00,
2013-04-03 11:52:00,56.0,15.0,-100.00,SE,136,2.0,4.0,19,0.00,,,-99.99,,2013-04-03 17:52:00,
2013-04-03 12:02:00,55.0,16.0,-100.00,East,93,4.0,7.0,21,0.00,,,-99.99,,2013-04-03 18:02:00,
2013-04-03 12:12:00,56.0,15.0,-100.00,East,89,4.0,8.0,20,0.00,,,-99.99,,2013-04-03 18:12:00,
2013-04-03 12:21:00,56.0,15.0,-100.00,NNE,21,2.0,7.0,20,0.00,,,-99.99,,2013-04-03 18:21:00,
2013-04-03 12:32:00,56.0,15.0,-100.00,NNE,13,4.0,7.0,20,0.00,,,-99.99,,2013-04-03 18:32:00,
2013-04-03 12:42:00,56.0,17.0,-100.00,North,3,3.0,8.0,21,0.00,,,-99.99,,2013-04-03 18:42:00,
2013-04-03 12:52:00,56.0,15.0,-100.00,ENE,65,5.0,8.0,20,0.00,,,-99.99,,2013-04-03 18:52:00,
2013-04-03 13:02:00,55.0,16.0,-100.00,SSE,160,1.0,3.0,21,0.00,,,-99.99,,2013-04-03 19:02:00,
2013-04-03 13:11:00,55.0,15.0,-100.00,NNW,344,5.0,9.0,20,0.00,,,-99.99,,2013-04-03 19:11:00,
2013-04-03 13:21:00,54.0,23.0,-100.00,SW,224,12.0,16.0,30,0.00,,,-99.99,,2013-04-03 19:21:00,
2013-04-03 13:32:00,53.0,24.0,-100.00,SW,217,14.0,17.0,32,0.00,,,-99.99,,2013-04-03 19:32:00,
2013-04-03 13:42:00,52.0,22.0,-100.00,South,169,17.0,19.0,30,0.00,,,-99.99,,2013-04-03 19:42:00,
2013-04-03 13:52:00,54.0,21.0,-100.00,South,172,14.0,18.0,28,0.00,,,-99.99,,2013-04-03 19:52:00,
2013-04-03 14:02:00,56.0,23.0,-100.00,South,186,9.0,15.0,27,0.00,,,-99.99,,2013-04-03 20:02:00,
2013-04-03 14:11:00,54.0,21.0,-100.00,South,169,11.0,15.0,27,0.00,,,-99.99,,2013-04-03 20:11:00,
2013-04-03 14:21:00,55.0,20.0,-100.00,South,171,9.0,12.0,25,0.00,,,-99.99,,2013-04-03 20:21:00,
2013-04-03 14:32:00,56.0,21.0,-100.00,SE,145,9.0,12.0,26,0.00,,,-99.99,,2013-04-03 20:32:00,
2013-04-03 14:42:00,56.0,22.0,-100.00,SSE,158,12.0,16.0,27,0.00,,,-99.99,,2013-04-03 20:42:00,
2013-04-03 14:52:00,55.0,22.0,-100.00,SSE,147,11.0,14.0,27,0.00,,,-99.99,,2013-04-03 20:52:00,
2013-04-03 15:01:00,54.0,21.0,-100.00,ESE,117,10.0,13.0,27,0.00,,,-99.99,,2013-04-03 21:01:00,
2013-04-03 15:12:00,56.0,23.0,-100.00,SE,128,9.0,11.0,27,0.00,,,-99.99,,2013-04-03 21:12:00,
2013-04-03 15:22:00,58.0,20.0,-100.00,SSE,150,10.0,13.0,22,0.00,,,-99.99,,2013-04-03 21:22:00,
2013-04-03 15:32:00,56.0,17.0,-100.00,ESE,114,7.0,10.0,22,0.00,,,-99.99,,2013-04-03 21:32:00,
2013-04-03 15:42:00,57.0,18.0,-100.00,East,89,4.0,6.0,21,0.00,,,-99.99,,2013-04-03 21:42:00,
2013-04-03 15:52:00,56.0,19.0,-100.00,North,350,9.0,16.0,23,0.00,,,-99.99,,2013-04-03 21:52:00,
2013-04-03 16:02:00,54.0,23.0,-100.00,NW,318,14.0,20.0,29,0.00,,,-99.99,,2013-04-03 22:02:00,
2013-04-03 16:12:00,55.0,22.0,-100.00,North,354,7.0,13.0,28,0.00,,,-99.99,,2013-04-03 22:12:00,
2013-04-03 16:22:00,54.0,21.0,-100.00,North,0,10.0,15.0,27,0.00,,,-99.99,,2013-04-03 22:22:00,
2013-04-03 16:32:00,56.0,21.0,-100.00,ENE,61,7.0,13.0,26,0.00,,,-99.99,,2013-04-03 22:32:00,
2013-04-03 16:42:00,54.0,20.0,-100.00,NNW,335,8.0,11.0,26,0.00,,,-99.99,,2013-04-03 22:42:00,
2013-04-03 16:52:00,55.0,21.0,-100.00,NNW,329,6.0,10.0,26,0.00,,,-99.99,,2013-04-03 22:52:00,
2013-04-03 17:02:00,54.0,21.0,-100.00,NNE,16,6.0,8.0,26,0.00,,,-99.99,,2013-04-03 23:02:00,
2013-04-03 17:11:00,54.0,20.0,-100.00,ENE,68,7.0,9.0,26,0.00,,,-99.99,,2013-04-03 23:11:00,
2013-04-03 17:21:00,54.0,20.0,-100.00,ENE,61,9.0,11.0,27,0.00,,,-99.99,,2013-04-03 23:21:00,
2013-04-03 17:32:00,54.0,22.0,-100.00,NE,55,11.0,13.0,27,0.00,,,-99.99,,2013-04-03 23:32:00,
2013-04-03 17:42:00,55.0,22.0,-100.00,ENE,68,9.0,12.0,27,0.00,,,-99.99,,2013-04-03 23:42:00,
2013-04-03 17:52:00,54.0,22.0,-100.00,ENE,59,9.0,12.0,27,0.00,,,-99.99,,2013-04-03 23:52:00,
2013-04-03 18:02:00,54.0,22.0,-100.00,ENE,59,11.0,16.0,28,0.00,,,-99.99,,2013-04-04 00:02:00,
2013-04-03 18:11:00,54.0,21.0,-100.00,ENE,62,9.0,13.0,27,0.00,,,-99.99,,2013-04-04 00:11:00,
2013-04-03 18:21:00,54.0,21.0,-100.00,NE,54,7.0,9.0,28,0.00,,,-99.99,,2013-04-04 00:21:00,
2013-04-03 18:32:00,53.0,22.0,-100.00,ENE,72,7.0,12.0,29,0.00,,,-99.99,,2013-04-04 00:32:00,
2013-04-03 18:42:00,53.0,22.0,-100.00,NE,44,4.0,9.0,30,0.00,,,-99.99,,2013-04-04 00:42:00,
2013-04-03 18:51:00,54.0,22.0,-100.00,North,6,4.0,9.0,29,0.00,,,-99.99,,2013-04-04 00:51:00,
2013-04-03 19:02:00,53.0,22.0,-100.00,NW,320,7.0,10.0,29,0.00,,,-99.99,,2013-04-04 01:02:00,
2013-04-03 19:11:00,54.0,22.0,-100.00,NW,319,6.0,8.0,29,0.00,,,-99.99,,2013-04-04 01:11:00,
2013-04-03 19:21:00,53.0,24.0,-100.00,NW,313,7.0,9.0,32,0.00,,,-99.99,,2013-04-04 01:21:00,
2013-04-03 19:32:00,52.0,23.0,-100.00,NW,311,14.0,16.0,32,0.00,,,-99.99,,2013-04-04 01:32:00,
2013-04-03 19:42:00,51.0,24.0,-100.00,NNW,329,7.0,16.0,36,0.00,,,-99.99,,2013-04-04 01:42:00,
2013-04-03 19:52:00,50.0,24.0,-100.00,North,0,7.0,11.0,36,0.00,,,-99.99,,2013-04-04 01:52:00,
2013-04-03 20:02:00,49.0,22.0,-100.00,North,4,6.0,10.0,35,0.00,,,-99.99,,2013-04-04 02:02:00,
2013-04-03 20:11:00,49.0,22.0,-100.00,North,354,7.0,11.0,34,0.00,,,-99.99,,2013-04-04 02:11:00,
2013-04-03 20:22:00,48.0,22.0,-100.00,ENE,59,3.0,6.0,35,0.00,,,-99.99,,2013-04-04 02:22:00,
2013-04-03 20:32:00,48.0,22.0,-100.00,West,264,1.0,2.0,36,0.00,,,-99.99,,2013-04-04 02:32:00,
2013-04-03 20:42:00,48.0,22.0,-100.00,West,264,1.0,2.0,36,0.00,,,-99.99,,2013-04-04 02:42:00,
2013-04-03 20:52:00,48.0,22.0,-100.00,West,264,1.0,2.0,36,0.00,,,-99.99,,2013-04-04 02:52:00,
2013-04-03 21:02:00,47.0,24.0,-100.00,NNW,337,4.0,6.0,40,0.00,,,-99.99,,2013-04-04 03:02:00,
2013-04-03 21:11:00,47.0,24.0,-100.00,West,270,3.0,5.0,41,0.00,,,-99.99,,2013-04-04 03:11:00,
2013-04-03 21:21:00,46.0,25.0,-100.00,SSW,212,4.0,5.0,44,0.00,,,-99.99,,2013-04-04 03:21:00,
2013-04-03 21:33:00,45.0,26.0,-100.00,SSW,198,5.0,6.0,45,0.00,,,-99.99,,2013-04-04 03:33:00,
2013-04-03 21:43:00,46.0,26.0,-100.00,SSW,210,4.0,5.0,45,0.00,,,-99.99,,2013-04-04 03:43:00,
2013-04-03 21:53:00,45.0,26.0,-100.00,SW,224,1.0,2.0,46,0.00,,,-99.99,,2013-04-04 03:53:00,
2013-04-03 22:02:00,45.0,26.0,-100.00,SSE,164,1.0,2.0,47,0.00,,,-99.99,,2013-04-04 04:02:00,
2013-04-03 22:12:00,45.0,26.0,-100.00,South,182,0.0,1.0,47,0.00,,,-99.99,,2013-04-04 04:12:00,
2013-04-03 22:22:00,45.0,26.0,-100.00,South,182,4.0,5.0,47,0.00,,,-99.99,,2013-04-04 04:22:00,
2013-04-03 22:33:00,43.0,27.0,-100.00,SSE,154,1.0,2.0,52,0.00,,,-99.99,,2013-04-04 04:33:00,
2013-04-03 22:42:00,45.0,26.0,-100.00,SSW,198,1.0,2.0,48,0.00,,,-99.99,,2013-04-04 04:42:00,
2013-04-03 22:52:00,44.0,26.0,-100.00,South,184,4.0,5.0,50,0.00,,,-99.99,,2013-04-04 04:52:00,
2013-04-03 23:02:00,45.0,26.0,-100.00,South,189,4.0,5.0,48,0.00,,,-99.99,,2013-04-04 05:02:00,
2013-04-03 23:12:00,45.0,26.0,-100.00,SSW,192,6.0,6.0,47,0.00,,,-99.99,,2013-04-04 05:12:00,
2013-04-03 23:22:00,45.0,26.0,-100.00,South,188,6.0,7.0,45,0.00,,,-99.99,,2013-04-04 05:22:00,
2013-04-03 23:32:00,46.0,26.0,-100.00,South,188,6.0,7.0,45,0.00,,,-99.99,,2013-04-04 05:32:00,
2013-04-03 23:42:00,44.0,26.0,-100.00,SSW,202,4.0,6.0,48,0.00,,,-99.99,,2013-04-04 05:42:00,
2013-04-03 23:52:00,43.0,25.0,-100.00,WSW,240,3.0,5.0,49,0.00,,,-99.99,,2013-04-04 05:52:00,